createdAt,value
2019-02-17T00:04:52.483Z,1012.76
2019-02-17T00:09:52.519Z,1012.81
2019-02-17T00:14:52.468Z,1012.73
2019-02-17T00:19:52.487Z,1012.68
2019-02-17T00:24:52.513Z,1012.67
2019-02-17T00:29:52.586Z,1012.66
2019-02-17T00:34:52.477Z,1012.55
2019-02-17T00:39:52.513Z,1012.59
2019-02-17T00:44:52.571Z,1012.61
2019-02-17T00:49:52.495Z,1012.54
2019-02-17T00:54:52.837Z,1012.55
2019-02-17T00:59:52.645Z,1012.46
2019-02-17T01:04:52.598Z,1012.43
2019-02-17T01:09:52.760Z,1012.43
2019-02-17T01:14:52.498Z,1012.46
2019-02-17T01:19:52.572Z,1012.40
2019-02-17T01:24:52.542Z,1012.42
2019-02-17T01:29:52.554Z,1012.40
2019-02-17T01:34:52.716Z,1012.30
2019-02-17T01:39:52.538Z,1012.29
2019-02-17T01:44:52.553Z,1012.30
2019-02-17T01:49:53.667Z,1012.30
2019-02-17T01:54:52.617Z,1012.26
2019-02-17T01:59:52.650Z,1012.21
2019-02-17T02:04:52.719Z,1012.12
2019-02-17T02:09:52.622Z,1012.13
2019-02-17T02:14:52.589Z,1012.03
2019-02-17T02:19:52.575Z,1012.09
2019-02-17T02:24:52.944Z,1011.89
2019-02-17T02:29:52.579Z,1011.89
2019-02-17T02:34:52.801Z,1011.90
2019-02-17T02:39:52.675Z,1011.76
2019-02-17T02:44:52.612Z,1011.80
2019-02-17T02:49:52.609Z,1011.71
2019-02-17T02:54:52.640Z,1011.74
2019-02-17T02:59:52.865Z,1011.60
2019-02-17T03:04:52.627Z,1011.55
2019-02-17T03:09:52.660Z,1011.63
2019-02-17T03:14:52.784Z,1011.58
2019-02-17T03:19:52.648Z,1011.53
2019-02-17T03:24:52.855Z,1011.58
2019-02-17T03:30:04.054Z,1011.51
2019-02-17T03:34:52.592Z,1011.45
2019-02-17T03:39:52.747Z,1011.48
2019-02-17T03:44:52.707Z,1011.51
2019-02-17T03:49:52.720Z,1011.49
2019-02-17T03:54:52.758Z,1011.47
2019-02-17T03:59:52.709Z,1011.40
2019-02-17T04:04:52.722Z,1011.34
2019-02-17T04:09:52.664Z,1011.29
2019-02-17T04:14:52.789Z,1011.24
2019-02-17T04:19:52.939Z,1011.24
2019-02-17T04:24:52.657Z,1011.20
2019-02-17T04:29:52.711Z,1011.20
2019-02-17T04:34:52.945Z,1011.15
2019-02-17T04:39:52.777Z,1011.09
2019-02-17T04:44:52.806Z,1011.07
2019-02-17T04:49:52.737Z,1011.03
2019-02-17T04:54:52.901Z,1011.07
2019-02-17T04:59:52.695Z,1011.01
2019-02-17T05:04:52.730Z,1010.94
2019-02-17T05:09:52.772Z,1010.91
2019-02-17T05:14:52.807Z,1010.93
2019-02-17T05:19:52.801Z,1010.93
2019-02-17T05:24:52.789Z,1010.90
2019-02-17T05:29:53.022Z,1010.96
2019-02-17T05:34:53.261Z,1010.81
2019-02-17T05:39:53.090Z,1010.78
2019-02-17T05:44:52.821Z,1010.60
2019-02-17T05:49:52.805Z,1010.63
2019-02-17T05:54:52.811Z,1010.56
2019-02-17T05:59:52.736Z,1010.63
2019-02-17T06:04:52.844Z,1010.49
2019-02-17T06:09:53.098Z,1010.61
2019-02-17T06:14:52.803Z,1010.61
2019-02-17T06:19:53.169Z,1010.65
2019-02-17T06:24:53.025Z,1010.70
2019-02-17T06:29:52.814Z,1010.68
2019-02-17T06:34:52.870Z,1010.68
2019-02-17T06:39:52.861Z,1010.65
2019-02-17T06:44:52.952Z,1010.69
2019-02-17T06:49:52.870Z,1010.56
2019-02-17T06:54:52.814Z,1010.66
2019-02-17T06:59:53.024Z,1010.62
2019-02-17T07:04:52.984Z,1010.65
2019-02-17T07:09:52.802Z,1010.68
2019-02-17T07:14:52.959Z,1010.66
2019-02-17T07:19:52.863Z,1010.64
2019-02-17T07:24:52.955Z,1010.57
2019-02-17T07:29:52.811Z,1010.57
2019-02-17T07:34:52.861Z,1010.69
2019-02-17T07:39:53.115Z,1010.60
2019-02-17T07:44:53.191Z,1010.57
2019-02-17T07:49:53.190Z,1010.60
2019-02-17T07:54:52.935Z,1010.64
2019-02-17T07:59:52.949Z,1010.59
2019-02-17T08:04:52.895Z,1010.62
2019-02-17T08:09:52.876Z,1010.55
2019-02-17T08:14:53.037Z,1010.56
2019-02-17T08:19:52.829Z,1010.54
2019-02-17T08:24:52.943Z,1010.52
2019-02-17T08:29:52.867Z,1010.44
2019-02-17T08:34:53.314Z,1010.30
2019-02-17T08:39:52.879Z,1010.28
2019-02-17T08:44:52.992Z,1010.23
2019-02-17T08:49:53.234Z,1010.21
2019-02-17T08:54:53.069Z,1010.14
2019-02-17T08:59:53.098Z,1010.14
2019-02-17T09:04:52.976Z,1010.12
2019-02-17T09:09:52.950Z,1010.08
2019-02-17T09:14:52.967Z,1010.02
2019-02-17T09:19:53.412Z,1010.02
2019-02-17T09:24:53.036Z,1009.96
2019-02-17T09:29:53.054Z,1009.97
2019-02-17T09:34:53.317Z,1009.93
2019-02-17T09:39:52.940Z,1009.93
2019-02-17T09:44:52.969Z,1010.06
2019-02-17T09:49:53.092Z,1009.96
2019-02-17T09:54:53.179Z,1009.91
2019-02-17T09:59:52.981Z,1009.97
2019-02-17T10:04:53.143Z,1009.95
2019-02-17T10:09:53.255Z,1009.91
2019-02-17T10:14:53.020Z,1009.91
2019-02-17T10:19:53.016Z,1009.88
2019-02-17T10:24:53.095Z,1009.90
2019-02-17T10:29:52.981Z,1009.88
2019-02-17T10:34:53.028Z,1009.76
2019-02-17T10:39:53.152Z,1009.77
2019-02-17T10:44:53.181Z,1009.70
2019-02-17T10:49:53.009Z,1009.73
2019-02-17T10:54:53.074Z,1009.60
2019-02-17T10:59:53.193Z,1009.53
2019-02-17T11:04:53.127Z,1009.56
2019-02-17T11:09:53.058Z,1009.57
2019-02-17T11:14:53.097Z,1009.53
2019-02-17T11:19:53.429Z,1009.46
2019-02-17T11:24:53.087Z,1009.38
2019-02-17T11:29:53.095Z,1009.30
2019-02-17T11:34:53.153Z,1009.24
2019-02-17T11:39:53.052Z,1009.17
2019-02-17T11:44:53.100Z,1009.17
2019-02-17T11:49:53.113Z,1009.11
2019-02-17T11:54:53.076Z,1009.08
2019-02-17T11:59:53.056Z,1008.99
2019-02-17T12:04:53.150Z,1008.96
2019-02-17T12:09:53.064Z,1008.91
2019-02-17T12:14:53.219Z,1008.84
2019-02-17T12:19:53.134Z,1008.82
2019-02-17T12:24:53.071Z,1008.72
2019-02-17T12:29:53.059Z,1008.71
2019-02-17T12:34:53.125Z,1008.64
2019-02-17T12:39:53.066Z,1008.49
2019-02-17T12:44:53.141Z,1008.48
2019-02-17T12:49:53.136Z,1008.40
2019-02-17T12:54:53.398Z,1008.30
2019-02-17T12:59:53.142Z,1008.38
2019-02-17T13:04:53.351Z,1008.30
2019-02-17T13:09:53.206Z,1008.18
2019-02-17T13:14:53.104Z,1008.12
2019-02-17T13:19:53.155Z,1008.04
2019-02-17T13:24:53.329Z,1007.98
2019-02-17T13:29:53.313Z,1007.95
2019-02-17T13:34:53.250Z,1007.90
2019-02-17T13:39:53.187Z,1007.89
2019-02-17T13:44:53.336Z,1007.84
2019-02-17T13:49:53.157Z,1007.71
2019-02-17T13:54:53.182Z,1007.65
2019-02-17T13:59:53.186Z,1007.61
2019-02-17T14:04:53.249Z,1007.53
2019-02-17T14:09:53.176Z,1007.61
2019-02-17T14:14:53.248Z,1007.45
2019-02-17T14:19:53.293Z,1007.52
2019-02-17T14:24:53.208Z,1007.51
2019-02-17T14:29:53.329Z,1007.54
2019-02-17T14:34:53.277Z,1007.55
2019-02-17T14:39:53.231Z,1007.59
2019-02-17T14:44:53.343Z,1007.55
2019-02-17T14:49:53.461Z,1007.56
2019-02-17T14:54:53.190Z,1007.55
2019-02-17T14:59:53.243Z,1007.54
2019-02-17T15:04:53.382Z,1007.49
2019-02-17T15:09:53.238Z,1007.53
2019-02-17T15:14:53.255Z,1007.49
2019-02-17T15:19:53.277Z,1007.48
2019-02-17T15:24:53.310Z,1007.47
2019-02-17T15:29:53.224Z,1007.46
2019-02-17T15:34:53.378Z,1007.50
2019-02-17T15:39:53.403Z,1007.49
2019-02-17T15:44:53.314Z,1007.43
2019-02-17T15:49:53.281Z,1007.42
2019-02-17T15:54:53.327Z,1007.43
2019-02-17T15:59:53.245Z,1007.38
2019-02-17T16:04:53.290Z,1007.36
2019-02-17T16:09:53.238Z,1007.36
2019-02-17T16:14:53.371Z,1007.33
2019-02-17T16:19:53.498Z,1007.42
2019-02-17T16:24:53.332Z,1007.42
2019-02-17T16:29:53.968Z,1007.42
2019-02-17T16:34:53.507Z,1007.45
2019-02-17T16:39:53.454Z,1007.46
2019-02-17T16:44:53.277Z,1007.41
2019-02-17T16:49:53.373Z,1007.40
2019-02-17T16:54:53.336Z,1007.47
2019-02-17T16:59:53.571Z,1007.49
2019-02-17T17:04:53.308Z,1007.56
2019-02-17T17:09:53.343Z,1007.58
2019-02-17T17:14:53.370Z,1007.73
2019-02-17T17:19:53.812Z,1007.71
2019-02-17T17:24:53.348Z,1007.83
2019-02-17T17:29:53.374Z,1007.96
2019-02-17T17:34:58.835Z,1007.99
2019-02-17T17:39:53.536Z,1008.01
2019-02-17T17:44:53.373Z,1008.05
2019-02-17T17:49:53.437Z,1008.03
2019-02-17T17:54:53.432Z,1008.07
2019-02-17T17:59:53.397Z,1008.03
2019-02-17T18:04:53.766Z,1008.12
2019-02-17T18:09:53.463Z,1008.14
2019-02-17T18:14:53.418Z,1008.28
2019-02-17T18:19:53.470Z,1008.20
2019-02-17T18:24:53.483Z,1008.15
2019-02-17T18:29:53.404Z,1008.26
2019-02-17T18:34:53.630Z,1008.21
2019-02-17T18:39:53.513Z,1008.18
2019-02-17T18:44:53.493Z,1008.24
2019-02-17T18:49:53.451Z,1008.19
2019-02-17T18:54:53.549Z,1008.23
2019-02-17T18:59:53.719Z,1008.13
2019-02-17T19:04:53.416Z,1008.22
2019-02-17T19:09:53.489Z,1008.17
2019-02-17T19:14:53.583Z,1008.24
2019-02-17T19:19:53.431Z,1008.19
2019-02-17T19:24:53.493Z,1008.25
2019-02-17T19:29:53.598Z,1008.27
2019-02-17T19:34:53.429Z,1008.27
2019-02-17T19:39:53.450Z,1008.28
2019-02-17T19:44:53.610Z,1008.28
2019-02-17T19:49:53.770Z,1008.40
2019-02-17T19:54:53.424Z,1008.36
2019-02-17T19:59:53.498Z,1008.41
2019-02-17T20:04:53.782Z,1008.39
2019-02-17T20:09:53.578Z,1008.34
2019-02-17T20:14:53.924Z,1008.43
2019-02-17T20:19:53.749Z,1008.45
2019-02-17T20:24:53.610Z,1008.48
2019-02-17T20:29:53.504Z,1008.50
2019-02-17T20:34:53.479Z,1008.58
2019-02-17T20:39:53.672Z,1008.64
2019-02-17T20:44:53.540Z,1008.59
2019-02-17T20:49:53.781Z,1008.64
2019-02-17T20:54:53.583Z,1008.61
2019-02-17T20:59:53.624Z,1008.59
2019-02-17T21:04:53.669Z,1008.67
2019-02-17T21:09:53.926Z,1008.59
2019-02-17T21:14:53.849Z,1008.59
2019-02-17T21:19:53.554Z,1008.65
2019-02-17T21:24:53.652Z,1008.65
2019-02-17T21:29:53.745Z,1008.63
2019-02-17T21:34:53.619Z,1008.56
2019-02-17T21:39:53.593Z,1008.64
2019-02-17T21:44:53.648Z,1008.59
2019-02-17T21:49:53.554Z,1008.57
2019-02-17T21:54:53.739Z,1008.70
2019-02-17T21:59:53.656Z,1008.60
2019-02-17T22:04:53.582Z,1008.65
2019-02-17T22:09:53.617Z,1008.69
2019-02-17T22:14:53.835Z,1008.65
2019-02-17T22:19:53.681Z,1008.55
2019-02-17T22:24:53.826Z,1008.51
2019-02-17T22:29:53.736Z,1008.53
2019-02-17T22:34:54.102Z,1008.54
2019-02-17T22:39:53.620Z,1008.48
2019-02-17T22:44:53.846Z,1008.52
2019-02-17T22:49:53.967Z,1008.39
2019-02-17T22:54:53.626Z,1008.47
2019-02-17T22:59:53.778Z,1008.41
2019-02-17T23:04:53.932Z,1008.33
2019-02-17T23:09:53.892Z,1008.37
2019-02-17T23:14:53.634Z,1008.39
2019-02-17T23:19:53.795Z,1008.41
2019-02-17T23:24:53.939Z,1008.46
2019-02-17T23:29:53.892Z,1008.39
2019-02-17T23:34:53.709Z,1008.39
2019-02-17T23:39:53.841Z,1008.37
2019-02-17T23:44:53.989Z,1008.37
2019-02-17T23:49:53.761Z,1008.39
2019-02-17T23:54:54.120Z,1008.34
2019-02-17T23:59:53.978Z,1008.33
